Terminal Aerodrome Forecast
Issued by NWS Sterling, VA

Current Version | Previous Version | Text Only | Print | Product List | Glossary Off
Versions: 1 2 3 4 5 6 7 8 9 10 11 12

000
FTUS41 KLWX 232320
TAFMRB
TAF
KMRB 232320Z 2400/2424 32009KT P6SM BKN060
     FM240800 30004KT P6SM FEW060 SCT250
     FM241400 31015G25KT P6SM FEW060
     FM242300 31008KT P6SM FEW250=

USA.gov is the U.S. government's official web portal to all federal, state and local government web resources and services.